createdAt,value
2023-04-24T00:01:40.377Z,2.60
2023-04-24T00:04:08.204Z,2.65
2023-04-24T00:06:35.179Z,2.58
2023-04-24T00:09:02.789Z,2.40
2023-04-24T00:11:29.769Z,2.83
2023-04-24T00:13:57.775Z,2.55
2023-04-24T00:16:24.587Z,2.47
2023-04-24T00:18:53.603Z,2.72
2023-04-24T00:21:21.424Z,2.60
2023-04-24T00:23:48.851Z,2.60
2023-04-24T00:26:15.570Z,2.80
2023-04-24T00:28:42.312Z,2.30
2023-04-24T00:31:09.474Z,2.78
2023-04-24T00:33:36.267Z,2.92
2023-04-24T00:36:03.569Z,2.78
2023-04-24T00:38:30.466Z,2.83
2023-04-24T00:40:57.238Z,3.10
2023-04-24T00:43:24.036Z,3.38
2023-04-24T00:45:50.851Z,3.05
2023-04-24T00:48:17.786Z,2.92
2023-04-24T00:50:45.031Z,2.83
2023-04-24T00:53:11.901Z,3.20
2023-04-24T00:55:38.809Z,3.33
2023-04-24T00:58:06.219Z,3.10
2023-04-24T01:00:33.022Z,3.05
2023-04-24T01:03:05.481Z,3.25
2023-04-24T01:05:33.679Z,3.90
2023-04-24T01:08:00.801Z,3.63
2023-04-24T01:10:30.409Z,4.85
2023-04-24T01:12:57.565Z,4.10
2023-04-24T01:15:24.300Z,4.75
2023-04-24T01:17:51.309Z,5.22
2023-04-24T01:20:18.698Z,5.22
2023-04-24T01:22:45.633Z,5.20
2023-04-24T01:25:12.416Z,5.82
2023-04-24T01:27:39.268Z,6.50
2023-04-24T01:30:07.496Z,6.38
2023-04-24T01:32:34.469Z,6.20
2023-04-24T01:35:02.216Z,6.20
2023-04-24T01:37:29.268Z,6.55
2023-04-24T01:39:57.011Z,6.30
2023-04-24T01:42:24.162Z,5.80
2023-04-24T01:44:52.162Z,6.53
2023-04-24T01:47:18.933Z,7.28
2023-04-24T01:49:48.715Z,6.07
2023-04-24T01:52:15.581Z,7.30
2023-04-24T01:54:42.289Z,5.97
2023-04-24T01:57:09.455Z,5.68
2023-04-24T01:59:37.337Z,5.60
2023-04-24T02:02:04.520Z,5.75
2023-04-24T02:04:31.910Z,5.45
2023-04-24T02:06:58.679Z,5.97
2023-04-24T02:09:25.932Z,5.78
2023-04-24T02:11:52.692Z,6.15
2023-04-24T02:14:19.403Z,5.20
2023-04-24T02:16:46.783Z,5.50
2023-04-24T02:19:13.711Z,6.00
2023-04-24T02:21:40.499Z,5.10
2023-04-24T02:24:07.237Z,5.35
2023-04-24T02:26:34.010Z,5.43
2023-04-24T02:29:00.969Z,5.15
2023-04-24T02:31:27.757Z,5.55
2023-04-24T02:33:54.505Z,6.05
2023-04-24T02:36:21.996Z,5.65
2023-04-24T02:38:48.951Z,6.50
2023-04-24T02:41:15.722Z,5.57
2023-04-24T02:43:42.517Z,5.75
2023-04-24T02:46:09.233Z,5.53
2023-04-24T02:48:36.016Z,6.30
2023-04-24T02:51:02.765Z,6.90
2023-04-24T02:53:31.501Z,6.82
2023-04-24T02:55:58.222Z,5.97
2023-04-24T02:58:25.323Z,6.07
2023-04-24T03:00:56.804Z,6.10
2023-04-24T03:03:25.646Z,5.82
2023-04-24T03:05:53.027Z,6.75
2023-04-24T03:08:19.794Z,5.93
2023-04-24T03:10:48.138Z,6.30
2023-04-24T03:13:16.078Z,6.05
2023-04-24T03:15:42.825Z,6.45
2023-04-24T03:18:09.571Z,6.20
2023-04-24T03:20:37.930Z,7.30
2023-04-24T03:23:05.306Z,7.07
2023-04-24T03:25:32.121Z,7.03
2023-04-24T03:27:58.935Z,7.18
2023-04-24T03:30:25.745Z,6.43
2023-04-24T03:32:52.483Z,7.35
2023-04-24T03:35:19.256Z,6.97
2023-04-24T03:37:46.793Z,7.90
2023-04-24T03:40:13.511Z,8.13
2023-04-24T03:42:40.347Z,8.27
2023-04-24T03:45:08.114Z,8.45
2023-04-24T03:47:34.826Z,7.85
2023-04-24T03:50:01.918Z,8.10
2023-04-24T03:52:29.182Z,7.07
2023-04-24T03:54:56.433Z,6.68
2023-04-24T03:57:23.177Z,6.75
2023-04-24T03:59:49.905Z,8.13
2023-04-24T04:02:16.747Z,7.70
2023-04-24T04:04:43.980Z,7.85
2023-04-24T04:07:10.835Z,9.07
2023-04-24T04:09:37.729Z,6.25
2023-04-24T04:12:04.537Z,6.30
2023-04-24T04:14:31.251Z,6.25
2023-04-24T04:16:57.975Z,6.55
2023-04-24T04:19:24.836Z,7.45
2023-04-24T04:21:54.071Z,6.72
2023-04-24T04:24:25.196Z,7.80
2023-04-24T04:26:53.153Z,7.20
2023-04-24T04:29:19.981Z,8.32
2023-04-24T04:31:46.945Z,8.02
2023-04-24T04:34:14.205Z,7.38
2023-04-24T04:36:42.243Z,7.78
2023-04-24T04:39:09.250Z,7.45
2023-04-24T04:41:36.250Z,7.20
2023-04-24T04:44:05.477Z,6.65
2023-04-24T04:46:38.145Z,6.72
2023-04-24T04:49:04.980Z,6.30
2023-04-24T04:51:32.094Z,6.22
2023-04-24T04:53:58.865Z,6.85
2023-04-24T04:56:25.700Z,6.32
2023-04-24T04:58:52.405Z,5.57
2023-04-24T05:01:19.590Z,6.32
2023-04-24T05:03:46.558Z,6.10
2023-04-24T05:06:13.473Z,6.50
2023-04-24T05:08:40.742Z,5.65
2023-04-24T05:11:07.894Z,5.90
2023-04-24T05:13:39.882Z,6.28
2023-04-24T05:16:08.169Z,6.10
2023-04-24T05:18:34.984Z,6.28
2023-04-24T05:21:02.304Z,5.57
2023-04-24T05:23:29.790Z,5.75
2023-04-24T05:25:56.568Z,6.40
2023-04-24T05:28:23.273Z,5.60
2023-04-24T05:30:50.095Z,5.63
2023-04-24T05:33:16.824Z,5.63
2023-04-24T05:35:47.762Z,5.72
2023-04-24T05:38:15.346Z,5.35
2023-04-24T05:40:42.133Z,5.20
2023-04-24T05:43:08.854Z,4.82
2023-04-24T05:45:36.983Z,5.38
2023-04-24T05:48:04.527Z,4.05
2023-04-24T05:50:31.823Z,5.50
2023-04-24T05:53:02.918Z,4.00
2023-04-24T05:55:29.930Z,4.05
2023-04-24T05:57:56.675Z,4.07
2023-04-24T06:00:25.400Z,4.00
2023-04-24T06:02:53.793Z,3.60
2023-04-24T06:05:21.777Z,3.60
2023-04-24T06:07:49.155Z,3.38
2023-04-24T06:10:16.444Z,3.90
2023-04-24T06:12:43.466Z,3.90
2023-04-24T06:15:10.761Z,3.75
2023-04-24T06:17:38.001Z,3.53
2023-04-24T06:20:06.890Z,3.65
2023-04-24T06:22:34.470Z,3.95
2023-04-24T06:25:02.457Z,3.85
2023-04-24T06:27:29.788Z,3.60
2023-04-24T06:29:56.623Z,3.42
2023-04-24T06:32:25.291Z,3.90
2023-04-24T06:34:53.578Z,3.67
2023-04-24T06:37:21.501Z,3.40
2023-04-24T06:39:48.434Z,4.20
2023-04-24T06:42:15.305Z,2.75
2023-04-24T06:44:42.301Z,3.35
2023-04-24T06:47:10.862Z,3.03
2023-04-24T06:49:38.396Z,3.15
2023-04-24T06:52:05.600Z,3.05
2023-04-24T06:54:33.470Z,3.17
2023-04-24T06:57:01.672Z,2.65
2023-04-24T06:59:29.518Z,2.90
2023-04-24T07:01:56.636Z,2.60
2023-04-24T07:04:25.917Z,2.90
2023-04-24T07:06:56.922Z,2.78
2023-04-24T07:09:26.576Z,2.67
2023-04-24T07:11:54.298Z,2.42
2023-04-24T07:14:21.646Z,2.50
2023-04-24T07:16:48.481Z,2.22
2023-04-24T07:19:15.402Z,2.35
2023-04-24T07:21:42.900Z,1.92
2023-04-24T07:24:13.830Z,2.10
2023-04-24T07:26:41.427Z,2.28
2023-04-24T07:29:09.036Z,1.83
2023-04-24T07:31:36.088Z,2.10
2023-04-24T07:34:03.625Z,1.90
2023-04-24T07:36:31.017Z,2.05
2023-04-24T07:38:57.963Z,1.70
2023-04-24T07:41:25.583Z,1.45
2023-04-24T07:43:54.531Z,2.58
2023-04-24T07:46:21.885Z,1.65
2023-04-24T07:48:58.578Z,1.58
2023-04-24T07:51:39.025Z,1.55
2023-04-24T07:54:09.018Z,1.50
2023-04-24T07:56:39.907Z,1.50
2023-04-24T07:59:07.126Z,1.40
2023-04-24T08:01:34.050Z,1.27
2023-04-24T08:04:01.250Z,1.55
2023-04-24T08:06:31.415Z,1.30
2023-04-24T08:08:59.223Z,1.20
2023-04-24T08:11:29.631Z,1.30
2023-04-24T08:13:56.651Z,1.30
2023-04-24T08:16:25.130Z,1.33
2023-04-24T08:18:52.645Z,1.40
2023-04-24T08:21:21.512Z,1.35
2023-04-24T08:23:48.217Z,1.15
2023-04-24T08:26:15.356Z,1.02
2023-04-24T08:28:42.164Z,1.10
2023-04-24T08:31:08.992Z,1.00
2023-04-24T08:33:36.131Z,1.02
2023-04-24T08:36:05.559Z,1.00
2023-04-24T08:38:32.855Z,0.90
2023-04-24T08:41:01.173Z,0.73
2023-04-24T08:43:29.163Z,0.80
2023-04-24T08:45:58.048Z,0.73
2023-04-24T08:48:31.351Z,0.98
2023-04-24T08:50:59.856Z,1.10
2023-04-24T08:53:28.128Z,0.98
2023-04-24T08:55:56.626Z,1.00
2023-04-24T08:58:26.717Z,0.90
2023-04-24T09:00:56.467Z,1.30
2023-04-24T09:03:24.729Z,1.15
2023-04-24T09:05:53.019Z,1.00
2023-04-24T09:08:21.913Z,1.40
2023-04-24T09:10:51.163Z,0.90
2023-04-24T09:13:20.840Z,0.98
2023-04-24T09:15:48.069Z,1.42
2023-04-24T09:18:15.281Z,1.33
2023-04-24T09:21:03.539Z,2.00
2023-04-24T09:23:31.963Z,2.00
2023-04-24T09:26:01.428Z,1.60
2023-04-24T09:28:33.215Z,1.60
2023-04-24T09:31:08.151Z,1.55
2023-04-24T09:33:35.863Z,1.90
2023-04-24T09:36:03.581Z,1.60
2023-04-24T09:38:36.664Z,1.52
2023-04-24T09:41:05.885Z,1.50
2023-04-24T09:43:33.091Z,2.03
2023-04-24T09:46:06.959Z,1.40
2023-04-24T09:48:36.707Z,1.50
2023-04-24T09:51:05.243Z,1.75
2023-04-24T09:53:32.195Z,1.42
2023-04-24T09:56:10.183Z,1.30
2023-04-24T09:58:37.733Z,1.38
2023-04-24T10:01:04.796Z,1.38
2023-04-24T10:03:33.279Z,1.20
2023-04-24T10:06:09.484Z,1.25
2023-04-24T10:08:38.342Z,1.70
2023-04-24T10:11:05.783Z,1.42
2023-04-24T10:13:33.685Z,1.38
2023-04-24T10:16:02.039Z,1.45
2023-04-24T10:18:29.550Z,1.40
2023-04-24T10:20:57.145Z,1.42
2023-04-24T10:23:26.290Z,1.20
2023-04-24T10:25:54.257Z,1.38
2023-04-24T10:28:22.574Z,1.60
2023-04-24T10:30:51.546Z,1.45
2023-04-24T10:33:19.330Z,1.60
2023-04-24T10:35:51.340Z,1.20
2023-04-24T10:38:25.722Z,1.48
2023-04-24T10:40:52.600Z,1.23
2023-04-24T10:43:20.200Z,1.42
2023-04-24T10:46:04.188Z,1.55
2023-04-24T10:48:31.660Z,1.60
2023-04-24T10:50:59.578Z,1.40
2023-04-24T10:53:31.314Z,1.20
2023-04-24T10:56:05.768Z,1.10
2023-04-24T10:58:44.217Z,1.20
2023-04-24T11:01:30.987Z,1.27
2023-04-24T11:04:04.557Z,1.30
2023-04-24T11:06:35.909Z,1.30
2023-04-24T11:09:13.300Z,1.13
2023-04-24T11:11:47.676Z,1.27
2023-04-24T11:17:02.883Z,1.48
2023-04-24T11:19:30.096Z,1.25
2023-04-24T11:21:57.128Z,1.50
2023-04-24T11:24:38.807Z,1.10
2023-04-24T11:27:05.557Z,1.40
2023-04-24T11:29:40.757Z,1.30
2023-04-24T11:32:19.657Z,0.82
2023-04-24T11:34:55.889Z,1.17
2023-04-24T11:37:24.678Z,1.20
2023-04-24T11:39:52.859Z,1.48
2023-04-24T11:42:22.128Z,1.30
2023-04-24T11:44:50.047Z,1.30
2023-04-24T11:47:17.186Z,1.30
2023-04-24T11:49:44.760Z,1.00
2023-04-24T11:52:11.908Z,1.20
2023-04-24T11:54:38.821Z,1.45
2023-04-24T11:57:07.552Z,1.55
2023-04-24T11:59:38.801Z,1.42
2023-04-24T12:02:06.986Z,1.30
2023-04-24T12:04:41.772Z,1.50
2023-04-24T12:07:09.669Z,1.20
2023-04-24T12:09:50.222Z,1.30
2023-04-24T12:12:19.641Z,1.23
2023-04-24T12:14:59.988Z,1.17
2023-04-24T12:17:28.930Z,1.20
2023-04-24T12:20:07.155Z,1.30
2023-04-24T12:22:56.648Z,1.20
2023-04-24T12:25:25.882Z,1.27
2023-04-24T12:28:06.579Z,1.30
2023-04-24T12:30:35.539Z,1.50
2023-04-24T12:33:03.889Z,1.48
2023-04-24T12:35:36.554Z,1.48
2023-04-24T12:38:11.040Z,1.10
2023-04-24T12:40:37.775Z,1.38
2023-04-24T12:43:14.923Z,0.98
2023-04-24T12:45:41.707Z,1.10
2023-04-24T12:48:08.464Z,1.20
2023-04-24T12:50:35.509Z,1.20
2023-04-24T12:53:02.236Z,1.10
2023-04-24T12:55:29.055Z,1.02
2023-04-24T12:57:57.030Z,0.98
2023-04-24T13:00:23.812Z,1.00
2023-04-24T13:02:50.773Z,1.10
2023-04-24T13:05:18.169Z,1.00
2023-04-24T13:07:44.938Z,0.85
2023-04-24T13:10:12.137Z,0.75
2023-04-24T13:12:39.672Z,1.10
2023-04-24T13:15:08.261Z,1.00
2023-04-24T13:17:35.086Z,1.00
2023-04-24T13:20:02.409Z,0.88
2023-04-24T13:22:30.576Z,1.20
2023-04-24T13:24:58.194Z,0.90
2023-04-24T13:27:24.989Z,1.30
2023-04-24T13:29:52.131Z,1.10
2023-04-24T13:32:18.997Z,1.00
2023-04-24T13:34:45.826Z,1.10
2023-04-24T13:37:12.741Z,1.20
2023-04-24T13:39:39.496Z,1.13
2023-04-24T13:42:06.312Z,0.80
2023-04-24T13:44:33.291Z,1.00
2023-04-24T13:47:00.758Z,1.10
2023-04-24T13:49:28.095Z,1.10
2023-04-24T13:51:56.679Z,1.10
2023-04-24T13:54:26.475Z,1.05
2023-04-24T13:56:53.457Z,1.05
2023-04-24T13:59:22.184Z,1.30
2023-04-24T14:01:49.375Z,1.63
2023-04-24T14:04:17.032Z,1.13
2023-04-24T14:06:44.678Z,1.30
2023-04-24T14:09:11.574Z,1.05
2023-04-24T14:11:38.422Z,1.40
2023-04-24T14:14:06.290Z,1.27
2023-04-24T14:16:33.310Z,1.35
2023-04-24T14:19:00.868Z,1.20
2023-04-24T14:21:27.685Z,0.95
2023-04-24T14:23:55.690Z,1.50
2023-04-24T14:26:22.750Z,1.20
2023-04-24T14:28:49.698Z,1.20
2023-04-24T14:31:17.841Z,1.50
2023-04-24T14:33:45.152Z,1.27
2023-04-24T14:36:12.142Z,1.17
2023-04-24T14:38:39.061Z,0.93
2023-04-24T14:43:38.435Z,1.60
2023-04-24T14:46:05.664Z,1.40
2023-04-24T14:48:32.665Z,1.38
2023-04-24T14:51:00.723Z,1.20
2023-04-24T14:53:27.520Z,1.10
2023-04-24T14:55:54.856Z,0.90
2023-04-24T14:58:21.638Z,1.35
2023-04-24T15:00:52.817Z,1.20
2023-04-24T15:03:20.328Z,1.25
2023-04-24T15:05:47.569Z,1.25
2023-04-24T15:08:14.535Z,1.17
2023-04-24T15:10:41.557Z,0.95
2023-04-24T15:13:08.493Z,1.10
2023-04-24T15:15:35.701Z,1.00
2023-04-24T15:18:03.671Z,0.90
2023-04-24T15:20:31.088Z,1.00
2023-04-24T15:23:00.214Z,1.20
2023-04-24T15:25:27.294Z,1.00
2023-04-24T15:27:54.055Z,1.90
2023-04-24T15:30:20.939Z,1.75
2023-04-24T15:32:47.790Z,1.38
2023-04-24T15:35:16.980Z,1.35
2023-04-24T15:37:44.109Z,1.30
2023-04-24T15:40:14.106Z,1.60
2023-04-24T15:42:42.238Z,1.40
2023-04-24T15:45:10.871Z,1.50
2023-04-24T15:47:37.954Z,1.50
2023-04-24T15:50:05.628Z,1.35
2023-04-24T15:52:33.044Z,1.30
2023-04-24T15:55:00.052Z,1.27
2023-04-24T15:57:27.062Z,1.30
2023-04-24T15:59:53.845Z,1.30
2023-04-24T16:02:21.243Z,1.20
2023-04-24T16:04:49.734Z,1.08
2023-04-24T16:07:20.788Z,1.30
2023-04-24T16:09:47.559Z,1.27
2023-04-24T16:12:14.807Z,1.20
2023-04-24T16:14:42.122Z,1.33
2023-04-24T16:17:09.287Z,1.40
2023-04-24T16:19:36.203Z,1.40
2023-04-24T16:22:05.147Z,1.60
2023-04-24T16:24:32.424Z,1.85
2023-04-24T16:26:59.156Z,1.60
2023-04-24T16:29:26.051Z,1.50
2023-04-24T16:31:52.900Z,1.73
2023-04-24T16:34:20.112Z,1.33
2023-04-24T16:36:47.823Z,1.30
2023-04-24T16:39:15.269Z,1.60
2023-04-24T16:41:42.094Z,1.50
2023-04-24T16:44:09.294Z,1.63
2023-04-24T16:46:36.060Z,1.15
2023-04-24T16:49:02.824Z,1.27
2023-04-24T16:51:30.453Z,1.17
2023-04-24T16:53:57.278Z,1.42
2023-04-24T16:56:24.295Z,1.65
2023-04-24T16:58:51.268Z,1.20
2023-04-24T17:01:18.386Z,1.60
2023-04-24T17:03:45.675Z,1.40
2023-04-24T17:06:12.708Z,1.30
2023-04-24T17:08:39.730Z,1.67
2023-04-24T17:11:06.894Z,1.17
2023-04-24T17:13:33.919Z,1.00
2023-04-24T17:16:01.405Z,1.20
2023-04-24T17:18:29.138Z,1.50
2023-04-24T17:20:56.058Z,1.20
2023-04-24T17:23:23.687Z,1.60
2023-04-24T17:25:50.586Z,1.67
2023-04-24T17:28:35.576Z,1.40
2023-04-24T17:31:02.753Z,1.55
2023-04-24T17:33:30.689Z,1.50
2023-04-24T17:35:58.328Z,1.45
2023-04-24T17:38:25.202Z,1.60
2023-04-24T17:40:54.927Z,1.50
2023-04-24T17:43:22.837Z,1.42
2023-04-24T17:45:51.219Z,1.17
2023-04-24T17:48:21.080Z,1.70
2023-04-24T17:50:48.301Z,1.70
2023-04-24T17:53:15.868Z,1.50
2023-04-24T17:55:43.647Z,1.73
2023-04-24T17:58:11.069Z,1.55
2023-04-24T18:00:38.563Z,1.63
2023-04-24T18:03:07.037Z,1.80
2023-04-24T18:05:35.829Z,1.52
2023-04-24T18:08:03.393Z,1.58
2023-04-24T18:10:31.903Z,1.70
2023-04-24T18:12:59.390Z,1.80
2023-04-24T18:15:27.036Z,1.90
2023-04-24T18:17:53.857Z,1.50
2023-04-24T18:20:21.012Z,2.20
2023-04-24T18:22:48.141Z,1.75
2023-04-24T18:25:21.084Z,1.90
2023-04-24T18:27:49.060Z,2.05
2023-04-24T18:30:15.995Z,2.17
2023-04-24T18:32:42.881Z,2.13
2023-04-24T18:35:10.386Z,1.98
2023-04-24T18:37:37.107Z,2.00
2023-04-24T18:40:04.031Z,2.40
2023-04-24T18:42:30.990Z,2.20
2023-04-24T18:45:01.582Z,2.10
2023-04-24T18:47:29.307Z,2.38
2023-04-24T18:49:56.267Z,2.08
2023-04-24T18:52:24.895Z,2.33
2023-04-24T18:54:52.412Z,2.50
2023-04-24T18:57:19.464Z,2.42
2023-04-24T18:59:46.147Z,2.17
2023-04-24T19:02:13.143Z,2.47
2023-04-24T19:04:39.928Z,2.28
2023-04-24T19:07:07.181Z,2.42
2023-04-24T19:09:33.927Z,2.53
2023-04-24T19:12:01.965Z,2.60
2023-04-24T19:14:29.046Z,2.60
2023-04-24T19:16:55.933Z,2.70
2023-04-24T19:19:23.777Z,2.60
2023-04-24T19:21:50.652Z,2.70
2023-04-24T19:24:19.022Z,2.50
2023-04-24T19:26:46.223Z,2.45
2023-04-24T19:29:13.024Z,3.15
2023-04-24T19:31:40.189Z,2.60
2023-04-24T19:34:06.996Z,3.20
2023-04-24T19:36:33.875Z,2.60
2023-04-24T19:39:00.909Z,2.65
2023-04-24T19:41:27.936Z,2.78
2023-04-24T19:43:54.677Z,3.00
2023-04-24T19:46:21.549Z,3.17
2023-04-24T19:48:48.639Z,3.42
2023-04-24T19:51:15.654Z,3.08
2023-04-24T19:53:44.109Z,3.40
2023-04-24T19:56:10.865Z,2.80
2023-04-24T19:58:37.770Z,3.00
2023-04-24T20:01:05.896Z,3.45
2023-04-24T20:03:34.110Z,3.28
2023-04-24T20:06:01.416Z,3.22
2023-04-24T20:08:28.474Z,3.20
2023-04-24T20:10:57.613Z,3.40
2023-04-24T20:13:28.122Z,3.20
2023-04-24T20:15:55.065Z,3.08
2023-04-24T20:18:21.977Z,3.30
2023-04-24T20:20:48.982Z,3.10
2023-04-24T20:23:15.851Z,2.78
2023-04-24T20:25:42.901Z,2.80
2023-04-24T20:28:09.640Z,3.10
2023-04-24T20:30:38.002Z,2.70
2023-04-24T20:33:04.958Z,2.80
2023-04-24T20:35:31.928Z,2.40
2023-04-24T20:37:59.561Z,2.67
2023-04-24T20:40:29.819Z,2.30
2023-04-24T20:42:58.321Z,2.80
2023-04-24T20:45:25.760Z,3.30
2023-04-24T20:47:52.689Z,2.92
2023-04-24T20:50:20.596Z,2.88
2023-04-24T20:52:47.895Z,2.53
2023-04-24T20:55:15.324Z,2.97
2023-04-24T20:57:42.298Z,2.63
2023-04-24T21:00:10.745Z,2.40
2023-04-24T21:02:37.604Z,2.95
2023-04-24T21:05:04.732Z,2.88
2023-04-24T21:07:32.886Z,2.83
2023-04-24T21:09:59.660Z,2.85
2023-04-24T21:12:26.409Z,2.92
2023-04-24T21:14:53.199Z,2.38
2023-04-24T21:17:19.992Z,2.80
2023-04-24T21:19:46.992Z,2.58
2023-04-24T21:22:14.439Z,3.15
2023-04-24T21:24:41.298Z,2.70
2023-04-24T21:27:09.091Z,3.05
2023-04-24T21:29:35.920Z,2.83
2023-04-24T21:32:03.474Z,2.67
2023-04-24T21:34:30.658Z,3.30
2023-04-24T21:36:57.395Z,2.80
2023-04-24T21:39:24.705Z,2.92
2023-04-24T21:41:52.065Z,3.00
2023-04-24T21:44:19.006Z,2.45
2023-04-24T21:46:46.080Z,3.13
2023-04-24T21:49:12.869Z,3.30
2023-04-24T21:51:39.609Z,2.85
2023-04-24T21:54:06.379Z,2.83
2023-04-24T21:56:33.204Z,3.10
2023-04-24T21:59:00.511Z,3.00
2023-04-24T22:01:27.282Z,3.15
2023-04-24T22:03:54.367Z,3.30
2023-04-24T22:06:21.459Z,3.83
2023-04-24T22:08:48.253Z,3.13
2023-04-24T22:11:23.839Z,3.08
2023-04-24T22:13:53.366Z,3.25
2023-04-24T22:16:22.645Z,3.45
2023-04-24T22:18:49.822Z,4.00
2023-04-24T22:21:16.583Z,3.97
2023-04-24T22:23:43.354Z,4.30
2023-04-24T22:26:10.164Z,3.97
2023-04-24T22:28:36.892Z,3.83
2023-04-24T22:31:03.949Z,5.80
2023-04-24T22:33:30.745Z,4.40
2023-04-24T22:35:57.477Z,3.88
2023-04-24T22:38:24.984Z,4.28
2023-04-24T22:40:51.733Z,3.35
2023-04-24T22:43:18.849Z,3.63
2023-04-24T22:45:45.751Z,4.60
2023-04-24T22:48:12.474Z,3.80
2023-04-24T22:50:39.300Z,3.85
2023-04-24T22:53:06.204Z,4.15
2023-04-24T22:55:32.952Z,4.55
2023-04-24T22:58:00.725Z,6.20
2023-04-24T23:00:27.690Z,4.18
2023-04-24T23:02:54.643Z,4.50
2023-04-24T23:05:22.369Z,5.10
2023-04-24T23:07:49.129Z,4.30
2023-04-24T23:10:16.052Z,3.92
2023-04-24T23:12:43.660Z,3.38
2023-04-24T23:15:11.889Z,3.28
2023-04-24T23:17:38.994Z,3.25
2023-04-24T23:20:06.506Z,3.45
2023-04-24T23:22:33.712Z,3.90
2023-04-24T23:25:01.133Z,3.58
2023-04-24T23:27:27.919Z,4.03
2023-04-24T23:29:54.621Z,3.58
2023-04-24T23:32:21.540Z,3.55
2023-04-24T23:34:48.479Z,3.67
2023-04-24T23:37:17.315Z,3.92
2023-04-24T23:39:45.807Z,3.72
2023-04-24T23:42:12.599Z,4.13
2023-04-24T23:44:39.295Z,4.88
2023-04-24T23:47:06.100Z,4.38
2023-04-24T23:49:32.903Z,4.10
2023-04-24T23:51:59.648Z,3.92
2023-04-24T23:54:26.489Z,4.15
2023-04-24T23:56:53.257Z,3.35
2023-04-24T23:59:21.562Z,3.42
